Time;durP1;ratioP1;P1;durP2;ratioP2;P2;SDS_P1;SDS_P2;PMS_P1;PMS_P2;Temp;Humidity;BMP_temperature;BMP_pressure;BME280_temperature;BME280_humidity;BME280_pressure;Samples;Min_cycle;Max_cycle;Signal;HPM_P1;HPM_P2
2021/12/20 00:01:43;;;;;;;16.10;8.83;;;;;;;0.97;89.10;96267.51;1693221;83;21120;-86
2021/12/20 00:04:09;;;;;;;16.57;9.03;;;;;;;0.92;89.27;96269.64;1691641;82;21075;-87
2021/12/20 00:06:35;;;;;;;14.03;7.85;;;;;;;0.93;89.50;96278.47;1710950;81;21524;-87
2021/12/20 00:09:01;;;;;;;13.53;8.33;;;;;;;0.97;89.64;96270.06;1707534;83;21441;-87
2021/12/20 00:11:27;;;;;;;16.25;9.68;;;;;;;1.00;89.57;96274.49;1705680;83;20983;-86
2021/12/20 00:13:53;;;;;;;13.50;9.08;;;;;;;1.03;89.66;96271.67;1693415;82;21020;-86
2021/12/20 00:16:18;;;;;;;14.90;9.23;;;;;;;1.02;89.46;96280.29;1709783;82;21012;-86
2021/12/20 00:18:44;;;;;;;13.80;9.20;;;;;;;0.99;89.48;96280.55;1658740;85;21041;-86
2021/12/20 00:21:10;;;;;;;15.68;9.03;;;;;;;1.01;89.59;96277.86;1697442;83;21525;-86
2021/12/20 00:23:36;;;;;;;12.60;7.62;;;;;;;1.02;89.58;96278.20;1695127;83;21070;-86
2021/12/20 00:26:02;;;;;;;13.25;8.98;;;;;;;1.03;89.39;96279.82;1713814;83;21398;-86
2021/12/20 00:28:28;;;;;;;15.65;9.25;;;;;;;1.02;89.30;96279.02;1707328;82;21023;-86
2021/12/20 00:30:54;;;;;;;14.10;9.43;;;;;;;1.04;89.55;96284.00;1697516;83;21024;-86
2021/12/20 00:33:19;;;;;;;15.83;10.15;;;;;;;1.06;89.56;96280.84;1719184;82;21023;-86
2021/12/20 00:35:46;;;;;;;14.83;10.35;;;;;;;1.04;89.52;96284.81;1684713;83;21104;-86
2021/12/20 00:42:11;;;;;;;18.52;10.23;;;;;;;1.02;89.35;96291.80;1711799;82;21087;-86
2021/12/20 00:44:37;;;;;;;16.75;9.33;;;;;;;1.00;89.00;96296.23;1707018;81;21059;-86
2021/12/20 00:47:03;;;;;;;15.48;9.43;;;;;;;0.99;89.01;96297.17;1692609;81;21393;-86
2021/12/20 00:49:29;;;;;;;17.17;10.65;;;;;;;0.95;89.00;96298.80;1703199;83;21064;-86
2021/12/20 00:51:55;;;;;;;14.83;9.50;;;;;;;0.94;89.40;96298.47;1691230;83;21169;-86
2021/12/20 00:54:21;;;;;;;17.37;9.03;;;;;;;0.95;89.45;96300.08;1697650;82;21048;-86
2021/12/20 00:56:48;;;;;;;14.28;8.68;;;;;;;0.98;89.63;96304.98;1694370;83;21015;-86
2021/12/20 00:59:15;;;;;;;19.35;9.38;;;;;;;0.99;89.51;96308.69;1704577;83;21466;-86
2021/12/20 01:01:41;;;;;;;13.75;9.08;;;;;;;1.01;89.37;96301.70;1703008;83;21013;-86
2021/12/20 01:04:07;;;;;;;16.30;9.20;;;;;;;1.02;89.35;96291.80;1706574;83;21065;-86
2021/12/20 01:06:32;;;;;;;17.87;8.90;;;;;;;1.00;89.03;96300.08;1685160;83;21098;-86
2021/12/20 01:08:58;;;;;;;12.90;8.03;;;;;;;0.96;89.06;96297.87;1709175;83;21027;-86
2021/12/20 01:11:28;;;;;;;11.95;7.85;;;;;;;0.95;89.23;96294.50;1704386;81;21051;-86
2021/12/20 01:13:53;;;;;;;14.55;7.92;;;;;;;0.95;89.13;96297.53;1677203;84;21051;-86
2021/12/20 01:16:29;;;;;;;15.03;8.25;;;;;;;0.95;89.11;96300.08;1700559;82;21098;-86
2021/12/20 01:18:47;;;;;;;12.15;8.85;;;;;;;0.92;88.96;96299.06;1707516;83;21010;-86
2021/12/20 01:21:13;;;;;;;13.38;8.70;;;;;;;0.90;89.00;96291.52;1693615;83;21392;-86
2021/12/20 01:23:39;;;;;;;14.25;8.68;;;;;;;0.87;89.19;96295.13;1712561;83;21107;-86
2021/12/20 01:26:05;;;;;;;16.57;9.48;;;;;;;0.85;89.25;96301.31;1698029;81;21038;-85
2021/12/20 01:28:31;;;;;;;12.23;8.10;;;;;;;0.77;89.27;96309.59;1712825;83;21036;-86
2021/12/20 01:30:57;;;;;;;11.93;8.63;;;;;;;0.70;89.09;96308.47;1705250;82;21063;-86
2021/12/20 01:33:23;;;;;;;14.58;9.35;;;;;;;0.67;89.37;96309.19;1679700;84;21428;-86
2021/12/20 01:35:48;;;;;;;15.65;10.68;;;;;;;0.65;89.44;96305.48;1694510;83;21036;-86
2021/12/20 01:38:14;;;;;;;12.73;7.35;;;;;;;0.65;89.70;96302.92;1683975;83;21006;-86
2021/12/20 01:40:40;;;;;;;13.98;8.95;;;;;;;0.67;89.60;96298.96;1706354;83;20984;-86
2021/12/20 01:43:06;;;;;;;13.40;9.05;;;;;;;0.65;89.80;96294.41;1707819;82;21058;-86
2021/12/20 01:45:32;;;;;;;17.00;9.88;;;;;;;0.61;89.67;96292.57;1705347;83;21107;-86
2021/12/20 01:48:03;;;;;;;18.77;9.95;;;;;;;0.63;90.07;96300.11;1710160;82;21079;-86
2021/12/20 01:53:11;;;;;;;16.05;8.88;;;;;;;0.66;90.07;96302.45;1701128;83;21074;-86
2021/12/20 01:55:37;;;;;;;15.75;9.08;;;;;;;0.60;89.97;96288.39;1714572;83;21087;-86
2021/12/20 01:58:02;;;;;;;16.82;8.88;;;;;;;0.67;90.02;96292.09;1679943;84;21088;-87
2021/12/20 02:00:29;;;;;;;11.57;8.10;;;;;;;0.70;89.99;96291.84;1712060;83;21067;-86
2021/12/20 02:03:00;;;;;;;12.65;8.38;;;;;;;0.65;89.65;96300.80;1707092;83;21444;-86
2021/12/20 02:05:34;;;;;;;21.25;10.90;;;;;;;0.63;89.90;96307.31;1671804;83;21055;-86
2021/12/20 02:08:13;;;;;;;16.60;8.33;;;;;;;0.66;90.06;96303.73;1694224;83;21470;-86
2021/12/20 02:10:28;;;;;;;16.27;9.23;;;;;;;0.62;89.83;96300.58;1674717;84;21343;-86
2021/12/20 02:12:55;;;;;;;13.83;9.23;;;;;;;0.65;89.89;96302.92;1687468;83;21048;-86
2021/12/20 02:15:21;;;;;;;13.05;8.25;;;;;;;0.67;89.92;96301.52;1652601;84;21049;-86
2021/12/20 02:17:47;;;;;;;14.83;9.05;;;;;;;0.66;89.69;96296.87;1681308;83;20992;-86
2021/12/20 02:20:26;;;;;;;13.98;8.95;;;;;;;0.62;89.51;96297.22;1684357;84;21017;-86
2021/12/20 02:22:56;;;;;;;13.48;10.10;;;;;;;0.53;89.38;96297.50;1696096;83;21071;-86
2021/12/20 02:25:26;;;;;;;14.10;9.48;;;;;;;0.47;89.59;96298.77;1696470;83;21084;-87
2021/12/20 02:27:52;;;;;;;15.43;9.28;;;;;;;0.46;89.86;96297.62;1691424;84;21095;-86
2021/12/20 02:38:32;;;;;;;18.70;11.75;;;;;;;0.48;89.95;96304.23;1706159;83;21035;-86
2021/12/20 02:41:01;;;;;;;14.35;12.07;;;;;;;0.44;89.80;96302.86;1697341;83;21080;-86
2021/12/20 02:43:29;;;;;;;13.20;10.40;;;;;;;0.43;89.79;96301.70;1712365;82;21023;-86
2021/12/20 02:45:59;;;;;;;14.60;9.93;;;;;;;0.43;89.69;96299.14;1709613;81;20977;-86
2021/12/20 02:48:22;;;;;;;12.73;9.30;;;;;;;0.42;89.76;96302.17;1677531;84;21035;-86
2021/12/20 02:50:48;;;;;;;14.58;9.93;;;;;;;0.41;89.55;96307.41;1701909;81;21151;-85
2021/12/20 02:53:14;;;;;;;16.52;9.95;;;;;;;0.43;89.47;96302.98;1710486;83;21412;-86
2021/12/20 02:55:40;;;;;;;14.63;11.18;;;;;;;0.41;89.54;96301.83;1718136;83;21001;-86
2021/12/20 02:58:05;;;;;;;12.18;8.23;;;;;;;0.38;89.45;96308.93;1708987;83;21447;-86
2021/12/20 03:00:31;;;;;;;11.63;8.20;;;;;;;0.36;89.60;96311.61;1686903;83;21476;-85
2021/12/20 03:02:57;;;;;;;10.03;7.95;;;;;;;0.31;89.25;96317.52;1718354;83;21404;-86
2021/12/20 03:05:22;;;;;;;12.13;8.20;;;;;;;0.25;89.25;96318.02;1677027;83;20975;-85
2021/12/20 03:07:53;;;;;;;11.97;7.47;;;;;;;0.24;89.59;96319.77;1710009;82;21045;-86
2021/12/20 03:10:21;;;;;;;13.28;7.87;;;;;;;0.18;89.08;96321.99;1718443;82;21023;-86
2021/12/20 03:12:49;;;;;;;11.03;7.83;;;;;;;0.14;89.40;96319.31;1708848;83;21190;-86
2021/12/20 03:15:21;;;;;;;10.03;8.10;;;;;;;0.14;89.85;96318.84;1715727;83;21017;-86
2021/12/20 03:17:45;;;;;;;12.15;7.37;;;;;;;0.13;89.60;96319.77;1675390;83;21039;-87
2021/12/20 03:20:14;;;;;;;15.50;6.47;;;;;;;0.17;89.74;96314.80;1713443;83;21028;-86
2021/12/20 03:22:38;;;;;;;7.58;6.53;;;;;;;0.18;89.43;96313.05;1683298;83;21020;-86
2021/12/20 03:25:05;;;;;;;11.43;7.78;;;;;;;0.18;89.41;96313.05;1685759;83;21012;-86
2021/12/20 03:27:30;;;;;;;10.48;7.87;;;;;;;0.18;89.70;96313.05;1695718;83;21035;-86
2021/12/20 03:29:56;;;;;;;12.58;8.88;;;;;;;0.21;89.99;96322.56;1694471;84;21035;-86
2021/12/20 03:32:22;;;;;;;11.90;8.53;;;;;;;0.24;89.74;96325.34;1700223;83;21444;-86
2021/12/20 03:34:48;;;;;;;15.00;9.43;;;;;;;0.23;89.71;96323.72;1717713;83;21391;-87
2021/12/20 03:37:14;;;;;;;12.13;8.40;;;;;;;0.23;89.51;96322.44;1715192;83;21028;-86
2021/12/20 03:39:39;;;;;;;12.25;8.95;;;;;;;0.19;89.00;96323.62;1710664;82;21098;-86
2021/12/20 03:42:06;;;;;;;12.30;9.85;;;;;;;0.16;89.32;96325.11;1695341;81;21040;-86
2021/12/20 03:44:33;;;;;;;15.85;9.20;;;;;;;0.14;89.47;96341.02;1713811;83;21075;-86
2021/12/20 03:47:00;;;;;;;12.58;9.05;;;;;;;0.13;89.62;96338.12;1700325;82;20992;-86
2021/12/20 03:49:26;;;;;;;8.95;7.00;;;;;;;0.12;89.62;96331.39;1719070;83;20965;-85
2021/12/20 03:51:51;;;;;;;10.28;6.87;;;;;;;0.07;89.41;96328.39;1703179;81;21020;-86
2021/12/20 03:54:17;;;;;;;10.58;6.97;;;;;;;0.07;89.10;96341.97;1709086;81;20980;-86
2021/12/20 03:56:43;;;;;;;11.28;8.58;;;;;;;0.05;89.11;96337.92;1706546;81;21061;-87
2021/12/20 03:59:09;;;;;;;11.65;7.22;;;;;;;0.05;89.33;96344.30;1650158;84;21063;-86
2021/12/20 04:01:34;;;;;;;9.58;6.80;;;;;;;0.05;89.61;96336.64;1690126;85;21084;-85
2021/12/20 04:04:01;;;;;;;8.85;6.85;;;;;;;0.05;89.46;96330.25;1694567;83;21059;-86
2021/12/20 04:06:27;;;;;;;10.48;7.55;;;;;;;0.02;88.77;96341.52;1696941;83;21398;-86
2021/12/20 04:08:54;;;;;;;9.65;6.67;;;;;;;-0.02;88.90;96338.37;1711285;82;21060;-86
2021/12/20 04:11:19;;;;;;;11.43;7.42;;;;;;;-0.02;88.88;96346.50;1704374;82;21463;-86
2021/12/20 04:13:45;;;;;;;9.98;7.37;;;;;;;-0.03;88.89;96339.77;1675634;83;21048;-86
2021/12/20 04:16:12;;;;;;;12.50;8.80;;;;;;;-0.04;88.57;96340.23;1706751;81;21019;-86
2021/12/20 04:18:39;;;;;;;11.28;7.78;;;;;;;-0.03;88.92;96327.80;1704390;82;21375;-86
2021/12/20 04:21:04;;;;;;;9.75;7.55;;;;;;;-0.01;88.85;96337.91;1705185;83;21079;-86
2021/12/20 04:23:30;;;;;;;15.08;9.20;;;;;;;-0.02;88.85;96335.81;1707115;82;21508;-86
2021/12/20 04:25:56;;;;;;;10.32;7.70;;;;;;;-0.03;88.92;96332.91;1698791;82;21079;-86
2021/12/20 04:28:22;;;;;;;15.55;8.75;;;;;;;-0.04;88.89;96333.84;1712602;83;21101;-86
2021/12/20 04:30:48;;;;;;;12.95;8.23;;;;;;;-0.06;88.57;96333.63;1705915;83;21068;-87
2021/12/20 04:33:14;;;;;;;11.08;7.95;;;;;;;-0.06;88.69;96334.44;1707813;83;21430;-86
2021/12/20 04:35:40;;;;;;;12.47;8.18;;;;;;;-0.01;89.12;96340.45;1717377;82;21114;-86
2021/12/20 04:38:08;;;;;;;19.52;11.12;;;;;;;-0.02;88.87;96337.09;1701688;82;21130;-86
2021/12/20 04:40:34;;;;;;;12.70;7.33;;;;;;;0.00;89.15;96338.28;1703093;83;21147;-86
2021/12/20 04:42:59;;;;;;;10.13;7.22;;;;;;;0.04;89.13;96327.36;1718274;81;21531;-86
2021/12/20 04:45:26;;;;;;;12.47;7.72;;;;;;;0.01;88.55;96335.27;1711205;83;20996;-86
2021/12/20 04:47:52;;;;;;;10.13;7.30;;;;;;;0.04;88.87;96328.16;1711077;81;21087;-86
2021/12/20 04:50:19;;;;;;;11.15;7.58;;;;;;;0.07;88.95;96333.50;1709983;82;21060;-86
2021/12/20 04:52:44;;;;;;;11.08;8.90;;;;;;;0.09;88.85;96331.63;1700524;83;21417;-86
2021/12/20 04:55:11;;;;;;;14.40;9.93;;;;;;;0.08;88.88;96331.29;1689729;83;21071;-86
2021/12/20 04:57:37;;;;;;;15.93;10.20;;;;;;;0.10;88.87;96334.53;1715797;82;22040;-86
2021/12/20 05:00:14;;;;;;;13.10;8.85;;;;;;;0.11;88.60;96337.44;1709039;82;20981;-86
2021/12/20 05:02:39;;;;;;;13.85;9.25;;;;;;;0.09;88.53;96340.58;1712598;82;21059;-86
2021/12/20 05:05:07;;;;;;;17.12;10.53;;;;;;;0.03;87.94;96343.61;1704092;83;21013;-86
2021/12/20 05:07:32;;;;;;;11.10;8.35;;;;;;;-0.01;88.19;96346.38;1708377;83;21076;-86
2021/12/20 05:10:01;;;;;;;16.77;9.95;;;;;;;0.01;88.34;96354.42;1709643;83;20964;-86
2021/12/20 05:12:26;;;;;;;15.53;9.03;;;;;;;-0.01;88.35;96350.21;1709743;83;21046;-86
2021/12/20 05:14:52;;;;;;;12.35;9.35;;;;;;;0.01;88.13;96349.31;1706820;83;21087;-85
2021/12/20 05:17:17;;;;;;;17.05;9.18;;;;;;;-0.02;88.35;96351.14;1710624;83;21508;-86
2021/12/20 05:19:44;;;;;;;14.20;9.20;;;;;;;0.00;88.26;96363.83;1709080;83;20974;-86
2021/12/20 05:22:10;;;;;;;12.98;9.50;;;;;;;-0.01;88.39;96357.87;1702201;83;21045;-86
2021/12/20 05:24:38;;;;;;;13.80;8.38;;;;;;;-0.02;88.22;96358.80;1706398;82;21009;-86
2021/12/20 05:27:04;;;;;;;14.35;9.95;;;;;;;-0.01;88.33;96357.87;1702009;83;21024;-86
2021/12/20 05:29:30;;;;;;;12.07;8.60;;;;;;;0.04;88.46;96360.56;1708298;83;21065;-86
2021/12/20 05:31:56;;;;;;;11.05;8.08;;;;;;;0.03;88.20;96367.42;1717544;82;21495;-86
2021/12/20 05:34:21;;;;;;;10.93;7.87;;;;;;;0.03;88.38;96364.86;1713220;83;21104;-86
2021/12/20 05:36:47;;;;;;;13.62;8.75;;;;;;;0.04;88.47;96362.66;1700675;82;21007;-85
2021/12/20 05:39:13;;;;;;;11.57;7.60;;;;;;;0.07;88.56;96364.16;1714749;81;21007;-86
2021/12/20 05:41:39;;;;;;;14.93;7.87;;;;;;;0.03;88.19;96357.66;1711655;83;21077;-85
2021/12/20 05:44:05;;;;;;;11.53;7.85;;;;;;;0.03;88.33;96362.77;1730897;82;21463;-86
2021/12/20 05:46:31;;;;;;;12.65;8.48;;;;;;;0.02;88.65;96353.48;1712086;83;20997;-86
2021/12/20 05:48:57;;;;;;;12.00;7.80;;;;;;;0.03;88.89;96353.83;1711618;82;21003;-86
2021/12/20 05:51:22;;;;;;;11.33;7.97;;;;;;;-0.03;88.53;96358.45;1710317;81;21144;-86
2021/12/20 05:53:48;;;;;;;10.50;6.20;;;;;;;-0.09;88.72;96355.11;1708743;82;21153;-86
2021/12/20 05:56:14;;;;;;;11.03;6.40;;;;;;;-0.07;89.00;96354.98;1704595;83;21119;-86
2021/12/20 05:58:40;;;;;;;9.55;6.92;;;;;;;-0.07;89.17;96357.54;1719256;82;21147;-86
2021/12/20 06:01:06;;;;;;;9.25;5.78;;;;;;;-0.08;89.10;96361.02;1711416;83;20992;-86
2021/12/20 06:03:32;;;;;;;8.60;6.45;;;;;;;-0.12;89.04;96356.63;1711018;83;21511;-86
2021/12/20 06:05:57;;;;;;;12.82;7.10;;;;;;;-0.15;89.03;96360.69;1706641;83;20998;-86
2021/12/20 06:08:23;;;;;;;9.83;7.17;;;;;;;-0.16;89.10;96359.06;1704926;82;21108;-86
2021/12/20 06:10:49;;;;;;;10.23;7.70;;;;;;;-0.14;89.39;96360.22;1711745;82;21075;-86
2021/12/20 06:13:15;;;;;;;12.45;8.33;;;;;;;-0.14;89.63;96362.78;1718182;83;21023;-86
2021/12/20 06:15:40;;;;;;;13.28;9.18;;;;;;;-0.14;89.54;96360.22;1717633;82;20973;-86
2021/12/20 06:18:06;;;;;;;18.15;11.53;;;;;;;-0.14;89.60;96364.87;1710324;83;21052;-86
2021/12/20 06:20:32;;;;;;;17.00;13.05;;;;;;;-0.14;89.65;96365.33;1700642;83;21102;-86
2021/12/20 06:22:58;;;;;;;20.02;15.85;;;;;;;-0.13;89.84;96365.22;1710096;83;21053;-86
2021/12/20 06:25:26;;;;;;;12.10;8.38;;;;;;;-0.16;89.55;96378.69;1712978;82;21021;-86
2021/12/20 06:27:51;;;;;;;14.50;10.75;;;;;;;-0.19;89.67;96382.26;1709634;83;21051;-85
2021/12/20 06:30:17;;;;;;;16.00;12.53;;;;;;;-0.19;89.78;96387.83;1705281;83;21021;-86
2021/12/20 06:32:44;;;;;;;13.25;11.60;;;;;;;-0.17;90.04;96387.25;1696211;83;21087;-86
2021/12/20 06:35:10;;;;;;;13.10;8.63;;;;;;;-0.16;89.99;96385.07;1667371;84;21060;-86
2021/12/20 06:37:36;;;;;;;13.88;9.05;;;;;;;-0.19;89.91;96396.30;1707940;81;21011;-86
2021/12/20 06:40:04;;;;;;;11.10;8.20;;;;;;;-0.22;90.00;96407.22;1714645;81;21008;-85
2021/12/20 06:42:30;;;;;;;12.63;8.88;;;;;;;-0.24;89.84;96418.02;1708732;81;21810;-86
2021/12/20 06:44:56;;;;;;;13.32;8.33;;;;;;;-0.46;89.92;96380.51;1703984;83;21107;-86
2021/12/20 06:47:23;;;;;;;9.15;6.60;;;;;;;-0.23;89.94;96414.53;1689309;81;21021;-85
2021/12/20 06:49:49;;;;;;;12.40;10.00;;;;;;;-0.23;90.05;96408.96;1701380;81;21461;-85
2021/12/20 06:52:15;;;;;;;15.93;12.68;;;;;;;-0.26;90.06;96413.48;1702374;82;21079;-85
2021/12/20 06:54:40;;;;;;;13.18;9.93;;;;;;;-0.26;90.14;96418.13;1702752;83;21063;-85
2021/12/20 06:57:06;;;;;;;16.25;10.68;;;;;;;-0.21;90.36;96407.56;1712244;83;21039;-85
2021/12/20 06:59:32;;;;;;;16.40;11.88;;;;;;;-0.16;90.36;96408.87;1697279;83;21402;-86
2021/12/20 07:01:58;;;;;;;15.55;10.70;;;;;;;-0.14;90.24;96426.63;1697788;82;21031;-85
2021/12/20 07:04:23;;;;;;;15.18;11.95;;;;;;;-0.18;90.24;96423.47;1697122;83;21008;-85
2021/12/20 07:06:49;;;;;;;11.80;8.93;;;;;;;-0.17;90.22;96431.94;1688590;83;21039;-85
2021/12/20 07:09:15;;;;;;;12.25;8.63;;;;;;;-0.20;89.99;96433.45;1677352;82;21073;-85
2021/12/20 07:11:42;;;;;;;14.00;9.28;;;;;;;-0.23;90.04;96426.02;1706215;83;21545;-85
2021/12/20 07:14:08;;;;;;;13.88;10.95;;;;;;;-0.26;90.12;96428.34;1716189;81;20995;-84
2021/12/20 07:16:36;;;;;;;13.88;9.33;;;;;;;-0.28;90.16;96431.95;1705634;82;20984;-85
2021/12/20 07:19:04;;;;;;;12.58;9.95;;;;;;;-0.31;90.23;96448.31;1711606;82;21087;-85
2021/12/20 07:21:30;;;;;;;14.28;10.65;;;;;;;-0.33;90.13;96448.86;1711271;81;21000;-85
2021/12/20 07:23:56;;;;;;;14.50;10.90;;;;;;;-0.31;90.31;96449.58;1708426;81;21434;-85
2021/12/20 07:26:22;;;;;;;15.03;10.85;;;;;;;-0.31;90.40;96449.12;1709246;81;21047;-85
2021/12/20 07:28:48;;;;;;;12.13;9.73;;;;;;;-0.29;90.49;96448.19;1708240;83;21102;-85
2021/12/20 07:31:13;;;;;;;14.83;9.38;;;;;;;-0.29;90.33;96443.90;1711231;82;21135;-85
2021/12/20 07:33:41;;;;;;;13.30;9.88;;;;;;;-0.27;90.23;96448.42;1691179;82;21505;-85
2021/12/20 07:36:07;;;;;;;16.05;12.78;;;;;;;-0.29;90.27;96450.28;1688562;84;21010;-85
2021/12/20 07:38:34;;;;;;;16.00;11.80;;;;;;;-0.29;90.41;96463.52;1705022;81;21080;-85
2021/12/20 07:41:00;;;;;;;15.65;10.75;;;;;;;-0.29;90.48;96462.23;1713569;82;21027;-85
2021/12/20 07:43:26;;;;;;;12.68;10.10;;;;;;;-0.28;90.48;96462.59;1711314;82;21020;-85
2021/12/20 07:45:52;;;;;;;12.75;9.90;;;;;;;-0.27;90.43;96460.38;1678892;83;20984;-85
2021/12/20 07:48:19;;;;;;;12.13;10.13;;;;;;;-0.28;90.47;96460.03;1707747;81;20977;-85
2021/12/20 07:50:46;;;;;;;17.60;13.85;;;;;;;-0.32;90.38;96458.98;1693707;83;21058;-85
2021/12/20 07:53:11;;;;;;;20.17;15.68;;;;;;;-0.31;90.53;96470.02;1706401;81;21008;-85
2021/12/20 07:55:37;;;;;;;18.80;16.00;;;;;;;-0.31;90.67;96461.08;1713112;82;21049;-85
2021/12/20 07:58:03;;;;;;;12.85;9.60;;;;;;;-0.32;90.64;96464.55;1679081;84;21027;-84
2021/12/20 08:00:29;;;;;;;11.48;9.63;;;;;;;-0.34;90.27;96464.64;1697943;82;21074;-85
2021/12/20 08:02:56;;;;;;;17.00;11.43;;;;;;;-0.35;90.37;96463.02;1685069;83;21030;-85
2021/12/20 08:05:24;;;;;;;15.25;10.30;;;;;;;-0.35;90.54;96473.23;1708869;81;21044;-84
2021/12/20 08:07:50;;;;;;;14.78;10.15;;;;;;;-0.33;90.49;96470.56;1708576;82;21367;-84
2021/12/20 08:10:21;;;;;;;21.77;13.03;;;;;;;-0.33;90.51;96472.68;1720065;81;21084;-85
2021/12/20 08:12:47;;;;;;;40.00;21.20;;;;;;;-0.31;90.43;96476.39;1701830;82;21004;-85
2021/12/20 08:15:13;;;;;;;15.68;11.33;;;;;;;-0.35;90.35;96478.80;1708997;81;21142;-85
2021/12/20 08:17:39;;;;;;;31.70;19.65;;;;;;;-0.35;90.41;96486.45;1709055;81;21112;-84
2021/12/20 08:20:07;;;;;;;20.60;13.65;;;;;;;-0.35;90.37;96483.44;1691401;82;21086;-84
2021/12/20 08:22:33;;;;;;;24.10;14.20;;;;;;;-0.33;90.31;96488.00;1708228;82;21097;-84
2021/12/20 08:25:01;;;;;;;27.58;13.20;;;;;;;-0.29;90.36;96490.32;1702733;83;21146;-85
2021/12/20 08:27:26;;;;;;;43.65;23.18;;;;;;;-0.25;90.55;96487.42;1697197;83;21068;-85
2021/12/20 08:29:52;;;;;;;41.35;23.27;;;;;;;-0.26;90.41;96482.44;1681083;83;21050;-85
2021/12/20 08:32:18;;;;;;;32.17;17.92;;;;;;;-0.23;90.55;96498.80;1705461;82;21063;-84
2021/12/20 08:34:44;;;;;;;21.37;13.95;;;;;;;-0.19;90.69;96498.92;1717642;81;21087;-85
2021/12/20 08:37:10;;;;;;;17.92;13.83;;;;;;;-0.18;90.61;96494.16;1697575;83;21211;-85
2021/12/20 08:39:36;;;;;;;15.43;12.33;;;;;;;-0.16;90.57;96512.30;1706071;82;21423;-85
2021/12/20 08:42:03;;;;;;;16.42;12.63;;;;;;;-0.19;90.57;96506.58;1667025;83;21008;-85
2021/12/20 08:44:30;;;;;;;20.20;12.80;;;;;;;-0.19;90.56;96511.22;1704959;83;21065;-85
2021/12/20 08:46:56;;;;;;;16.20;12.80;;;;;;;-0.17;90.59;96511.92;1700461;83;21023;-85
2021/12/20 08:49:21;;;;;;;15.83;11.10;;;;;;;-0.19;90.46;96514.23;1691613;83;21540;-85
2021/12/20 08:51:47;;;;;;;17.12;13.80;;;;;;;-0.19;90.55;96516.80;1708640;81;21035;-85
2021/12/20 08:54:14;;;;;;;18.92;14.58;;;;;;;-0.20;90.72;96514.70;1717863;82;20984;-85
2021/12/20 08:56:40;;;;;;;19.45;13.65;;;;;;;-0.20;90.53;96515.98;1715916;83;21024;-85
2021/12/20 08:59:05;;;;;;;20.05;14.23;;;;;;;-0.17;90.72;96518.30;1720315;81;21035;-85
2021/12/20 09:01:32;;;;;;;20.10;13.78;;;;;;;-0.16;90.50;96513.58;1699107;82;21040;-85
2021/12/20 09:03:59;;;;;;;25.17;17.42;;;;;;;-0.16;90.43;96513.58;1717267;81;21068;-84
2021/12/20 09:06:25;;;;;;;17.92;13.78;;;;;;;-0.13;90.78;96515.09;1709136;82;21059;-85
2021/12/20 09:08:54;;;;;;;18.75;14.55;;;;;;;-0.14;90.47;96516.83;1705824;81;21019;-85
2021/12/20 09:11:22;;;;;;;14.93;12.43;;;;;;;-0.12;90.41;96517.53;1692696;83;20980;-85
2021/12/20 09:13:49;;;;;;;16.50;12.78;;;;;;;-0.08;90.45;96516.37;1715100;81;21375;-85
2021/12/20 09:16:14;;;;;;;16.10;12.70;;;;;;;-0.09;90.34;96508.82;1706311;81;21140;-85
2021/12/20 09:18:40;;;;;;;16.30;11.93;;;;;;;-0.13;90.25;96521.01;1700880;81;21121;-85
2021/12/20 09:21:09;;;;;;;15.38;11.57;;;;;;;-0.19;90.23;96516.33;1701807;82;21067;-85
2021/12/20 09:23:33;;;;;;;14.05;11.95;;;;;;;-0.19;90.32;96511.69;1703649;81;21439;-85
2021/12/20 09:25:59;;;;;;;16.77;13.00;;;;;;;-0.20;90.44;96517.72;1681539;83;21129;-85
2021/12/20 09:28:25;;;;;;;16.80;12.47;;;;;;;-0.24;90.38;96512.03;1710493;82;21087;-85
2021/12/20 09:30:52;;;;;;;18.10;13.50;;;;;;;-0.28;90.45;96509.36;1714256;83;21094;-84
2021/12/20 09:33:18;;;;;;;16.30;13.10;;;;;;;-0.26;90.64;96518.18;1710317;82;21041;-85
2021/12/20 09:35:44;;;;;;;17.80;13.32;;;;;;;-0.24;90.56;96514.59;1719260;81;21059;-85
2021/12/20 09:38:11;;;;;;;19.82;13.98;;;;;;;-0.22;90.58;96509.36;1702049;83;21002;-85
2021/12/20 09:40:51;;;;;;;18.37;13.75;;;;;;;-0.17;90.74;96508.09;1707934;82;20978;-85
2021/12/20 09:43:12;;;;;;;21.95;15.35;;;;;;;-0.19;90.52;96511.22;1693739;82;22904;-85
2021/12/20 09:45:41;;;;;;;18.45;14.43;;;;;;;-0.19;90.59;96506.11;1716877;83;21072;-85
2021/12/20 09:48:06;;;;;;;20.25;15.90;;;;;;;-0.17;90.59;96511.92;1691287;82;22054;-85
2021/12/20 09:50:32;;;;;;;18.85;14.83;;;;;;;-0.12;90.65;96512.88;1681397;83;21119;-85
2021/12/20 09:53:04;;;;;;;19.40;14.78;;;;;;;-0.11;90.43;96512.77;1689179;83;21048;-85
2021/12/20 09:55:28;;;;;;;17.77;14.60;;;;;;;-0.11;90.41;96514.51;1707156;82;21444;-85
2021/12/20 09:57:54;;;;;;;15.45;13.25;;;;;;;-0.10;90.46;96515.67;1698215;81;21223;-85
2021/12/20 10:00:21;;;;;;;16.57;13.95;;;;;;;-0.09;90.43;96512.19;1665377;83;21088;-85
2021/12/20 10:02:47;;;;;;;16.40;13.00;;;;;;;-0.04;90.43;96519.04;1718081;83;21015;-85
2021/12/20 10:05:14;;;;;;;17.30;15.13;;;;;;;-0.02;90.22;96519.73;1708072;82;20993;-85
2021/12/20 10:07:41;;;;;;;18.48;14.95;;;;;;;-0.04;90.11;96519.04;1700617;83;21088;-85
2021/12/20 10:10:10;;;;;;;21.25;14.95;;;;;;;-0.06;90.24;96523.45;1710982;82;21028;-85
2021/12/20 10:12:37;;;;;;;19.75;14.20;;;;;;;-0.07;90.04;96525.66;1719466;81;20981;-85
2021/12/20 10:15:10;;;;;;;23.98;18.80;;;;;;;-0.09;89.87;96519.03;1678930;81;21122;-85
2021/12/20 10:17:55;;;;;;;21.37;14.70;;;;;;;-0.10;89.89;96527.16;1698739;83;21376;-85
2021/12/20 10:20:24;;;;;;;14.53;11.63;;;;;;;-0.12;89.80;96529.02;1704984;81;21289;-85
2021/12/20 10:22:52;;;;;;;19.67;13.90;;;;;;;-0.18;89.72;96532.00;1708305;83;21148;-85
2021/12/20 10:25:25;;;;;;;18.85;13.90;;;;;;;-0.22;89.72;96529.33;1705872;83;21513;-85
2021/12/20 10:27:51;;;;;;;24.40;16.80;;;;;;;-0.18;89.96;96537.11;1713078;81;21063;-85
2021/12/20 10:30:29;;;;;;;20.95;14.65;;;;;;;-0.17;89.79;96531.54;1722022;81;21010;-85
2021/12/20 10:32:56;;;;;;;24.47;14.90;;;;;;;-0.19;89.79;96531.66;1700916;82;21010;-85
2021/12/20 10:35:30;;;;;;;22.65;14.78;;;;;;;-0.21;89.87;96527.13;1705880;83;21037;-86
2021/12/20 10:38:04;;;;;;;25.25;15.48;;;;;;;-0.22;89.73;96527.23;1702406;83;21771;-86
2021/12/20 10:40:30;;;;;;;20.02;12.37;;;;;;;-0.22;89.85;96528.05;1688407;83;21405;-85
2021/12/20 10:42:57;;;;;;;19.98;13.48;;;;;;;-0.26;89.68;96525.37;1683426;83;21135;-86
2021/12/20 10:45:24;;;;;;;19.98;14.68;;;;;;;-0.28;89.97;96525.95;1710580;83;21075;-85
2021/12/20 10:47:50;;;;;;;18.30;11.93;;;;;;;-0.29;89.89;96528.62;1716909;82;21088;-85
2021/12/20 10:50:30;;;;;;;20.20;11.70;;;;;;;-0.29;89.97;96521.78;1703792;83;21094;-86
2021/12/20 10:53:23;;;;;;;18.50;13.25;;;;;;;-0.29;89.78;96526.88;1706655;83;21038;-85
2021/12/20 10:56:02;;;;;;;17.17;13.80;;;;;;;-0.28;90.03;96524.68;1724466;83;21071;-85
2021/12/20 10:58:34;;;;;;;15.72;11.63;;;;;;;-0.27;90.32;96525.49;1707731;83;20973;-85
2021/12/20 11:04:10;;;;;;;14.75;12.23;;;;;;;-0.22;90.24;96523.41;1713118;82;20186;-85
2021/12/20 11:06:55;;;;;;;17.62;14.00;;;;;;;-0.22;90.28;96526.77;1691218;83;21006;-85
2021/12/20 11:09:15;;;;;;;18.80;12.78;;;;;;;-0.24;90.16;96532.46;1651489;84;21429;-85
2021/12/20 11:11:51;;;;;;;17.30;13.55;;;;;;;-0.27;90.05;96529.32;1683294;83;21119;-85
2021/12/20 11:14:22;;;;;;;13.80;11.73;;;;;;;-0.23;90.38;96537.91;1697082;83;21304;-85
2021/12/20 11:16:53;;;;;;;15.58;11.95;;;;;;;-0.15;90.56;96538.66;1711924;82;21182;-85
2021/12/20 11:19:29;;;;;;;25.65;16.17;;;;;;;-0.19;90.34;96541.87;1717305;82;21446;-85
2021/12/20 11:22:08;;;;;;;29.20;18.70;;;;;;;-0.22;90.63;96542.09;1705376;82;21115;-85
2021/12/20 11:24:51;;;;;;;21.68;13.70;;;;;;;-0.19;91.01;96541.05;1710214;83;21104;-85
2021/12/20 11:27:30;;;;;;;51.58;30.17;;;;;;;-0.17;90.79;96540.48;1695959;83;21012;-85
2021/12/20 11:29:56;;;;;;;24.45;16.32;;;;;;;-0.11;90.89;96542.61;1706837;81;21014;-85
2021/12/20 11:32:23;;;;;;;25.75;20.02;;;;;;;-0.10;90.89;96539.13;1701193;81;21526;-85
2021/12/20 11:34:49;;;;;;;18.82;15.78;;;;;;;-0.11;90.92;96545.16;1714809;83;21105;-85
2021/12/20 11:37:19;;;;;;;21.20;15.63;;;;;;;-0.10;91.07;96542.95;1707710;83;21135;-85
2021/12/20 11:39:45;;;;;;;19.90;14.28;;;;;;;-0.10;90.93;96537.84;1687311;83;21408;-84
2021/12/20 11:42:12;;;;;;;20.70;14.80;;;;;;;-0.12;90.79;96536.69;1708428;81;21008;-85